Time;durP1;ratioP1;P1;durP2;ratioP2;P2;SDS_P1;SDS_P2;PMS_P1;PMS_P2;Temp;Humidity;BMP_temperature;BMP_pressure;BME280_temperature;BME280_humidity;BME280_pressure;Samples;Min_cycle;Max_cycle;Signal;HPM_P1;HPM_P2
2021/07/29 00:02:22;;;;;;;16.90;8.03;;;;;;;22.71;54.75;100573.16;1655218;85;21303;-64
2021/07/29 00:04:55;;;;;;;22.75;8.53;;;;;;;22.74;54.97;100571.92;1657636;84;21204;-64
2021/07/29 00:07:28;;;;;;;23.57;9.00;;;;;;;22.76;55.19;100568.02;1658679;85;21285;-64
2021/07/29 00:10:02;;;;;;;17.15;8.58;;;;;;;22.78;55.25;100575.84;1654609;84;21185;-64
2021/07/29 00:12:36;;;;;;;17.07;7.45;;;;;;;22.78;55.14;100576.64;1652737;85;21178;-64
2021/07/29 00:15:12;;;;;;;12.78;7.75;;;;;;;22.77;54.87;100577.69;1660472;85;21213;-64
2021/07/29 00:20:26;;;;;;;16.32;8.68;;;;;;;22.82;54.23;100572.23;1657594;86;21847;-64
2021/07/29 00:23:01;;;;;;;21.05;8.48;;;;;;;22.89;53.92;100563.69;1649214;85;21157;-64
2021/07/29 00:25:34;;;;;;;13.53;7.42;;;;;;;22.92;53.86;100561.44;1654615;85;21304;-64
2021/07/29 00:28:07;;;;;;;18.62;8.23;;;;;;;22.94;53.69;100559.37;1660170;85;21193;-64
2021/07/29 00:30:40;;;;;;;22.22;8.53;;;;;;;22.95;53.85;100560.20;1654636;85;21323;-65
2021/07/29 00:33:14;;;;;;;17.52;8.50;;;;;;;22.93;54.29;100559.06;1653922;85;21223;-65
2021/07/29 00:35:47;;;;;;;17.35;8.33;;;;;;;22.90;54.50;100555.49;1654297;85;21192;-64
2021/07/29 00:38:21;;;;;;;19.73;8.50;;;;;;;22.88;54.49;100564.20;1660910;84;21291;-64
2021/07/29 00:40:54;;;;;;;19.23;8.93;;;;;;;22.86;54.61;100554.25;1661458;85;21300;-65
2021/07/29 00:43:27;;;;;;;;;;;;;;;22.86;54.72;100556.92;1659286;85;21331;-65
2021/07/29 00:46:01;;;;;;;17.23;7.87;;;;;;;22.85;54.94;100551.30;1659014;85;20172;-64
2021/07/29 00:48:34;;;;;;;19.10;8.48;;;;;;;22.83;55.15;100560.53;1655146;85;21295;-65
2021/07/29 00:51:07;;;;;;;15.13;7.87;;;;;;;22.81;55.21;100558.05;1657539;85;21209;-64
2021/07/29 00:53:41;;;;;;;16.25;8.40;;;;;;;22.81;55.12;100559.39;1634871;85;21188;-64
2021/07/29 00:56:14;;;;;;;21.55;8.38;;;;;;;22.81;55.15;100558.05;1658595;85;21208;-64
2021/07/29 00:58:47;;;;;;;14.95;8.45;;;;;;;22.82;55.08;100553.55;1655033;85;21299;-64
2021/07/29 01:01:20;;;;;;;17.92;8.13;;;;;;;22.83;54.98;100558.69;1655880;85;21356;-64
2021/07/29 01:03:53;;;;;;;20.30;8.05;;;;;;;22.83;54.83;100558.69;1660759;84;21276;-65
2021/07/29 01:06:26;;;;;;;26.95;8.48;;;;;;;22.83;54.87;100552.53;1657002;84;21220;-64
2021/07/29 01:09:12;;;;;;;14.60;8.08;;;;;;;22.85;54.89;100553.96;1660818;85;21504;-64
2021/07/29 01:11:45;;;;;;;12.35;7.92;;;;;;;22.86;54.95;100555.58;1659948;84;21179;-64
2021/07/29 01:14:20;;;;;;;19.05;8.13;;;;;;;22.87;55.11;100557.23;1657663;84;21310;-64
2021/07/29 01:16:53;;;;;;;;;;;;;;;22.87;55.17;100553.23;1659439;84;21312;-64
2021/07/29 01:19:27;;;;;;;19.45;9.75;;;;;;;22.86;55.33;100557.42;1657286;84;20244;-64
2021/07/29 01:22:00;;;;;;;15.85;8.30;;;;;;;22.84;55.33;100553.64;1659802;85;21296;-64
2021/07/29 01:24:34;;;;;;;15.28;8.15;;;;;;;22.84;55.49;100552.81;1663046;85;21176;-64
2021/07/29 01:27:08;;;;;;;15.03;8.43;;;;;;;22.80;55.66;100553.77;1660040;85;21304;-64
2021/07/29 01:29:41;;;;;;;15.13;8.33;;;;;;;22.76;55.90;100557.34;1653113;85;21311;-64
2021/07/29 01:32:14;;;;;;;19.90;8.95;;;;;;;22.73;56.14;100555.63;1655975;85;21291;-64
2021/07/29 01:34:47;;;;;;;17.52;8.50;;;;;;;22.67;56.35;100559.93;1652825;85;21237;-65
2021/07/29 01:37:21;;;;;;;25.52;8.48;;;;;;;22.59;56.61;100551.30;1657232;85;21209;-65
2021/07/29 01:39:54;;;;;;;15.78;8.20;;;;;;;22.50;56.94;100552.51;1666928;85;21412;-64
2021/07/29 01:42:27;;;;;;;18.23;8.18;;;;;;;22.39;57.20;100552.63;1655539;85;21288;-64
2021/07/29 01:45:01;;;;;;;19.25;8.95;;;;;;;22.33;57.60;100552.64;1656274;85;21319;-64
2021/07/29 01:47:35;;;;;;;17.20;8.53;;;;;;;22.22;57.85;100550.56;1655066;85;21399;-64
2021/07/29 01:50:10;;;;;;;16.90;8.90;;;;;;;22.15;58.03;100550.56;1651769;85;21198;-64
2021/07/29 01:52:43;;;;;;;19.12;8.73;;;;;;;22.10;58.15;100549.02;1651463;85;21831;-64
2021/07/29 01:55:16;;;;;;;20.52;8.88;;;;;;;22.08;58.19;100546.56;1658452;85;21258;-64
2021/07/29 01:57:49;;;;;;;26.87;9.08;;;;;;;22.09;58.03;100550.86;1655477;85;21323;-64
2021/07/29 02:00:25;;;;;;;25.20;11.80;;;;;;;22.08;57.61;100551.90;1650639;85;21308;-65
2021/07/29 02:03:01;;;;;;;36.30;19.23;;;;;;;22.09;57.43;100550.06;1654471;85;21201;-64
2021/07/29 02:05:34;;;;;;;35.35;18.80;;;;;;;22.09;57.31;100550.06;1654274;84;21295;-65
2021/07/29 02:08:08;;;;;;;31.12;14.65;;;;;;;22.10;57.01;100551.17;1654114;85;21322;-65
2021/07/29 02:10:41;;;;;;;28.12;14.33;;;;;;;22.13;56.75;100555.28;1655288;85;21307;-65
2021/07/29 02:13:15;;;;;;;31.00;12.58;;;;;;;22.14;56.62;100563.58;1657700;85;21232;-64
2021/07/29 02:15:48;;;;;;;17.37;9.53;;;;;;;22.16;56.78;100556.22;1656317;85;21303;-64
2021/07/29 02:18:21;;;;;;;22.37;9.58;;;;;;;22.18;57.22;100566.16;1656297;85;21336;-64
2021/07/29 02:20:54;;;;;;;17.45;8.40;;;;;;;22.20;57.30;100568.62;1655958;85;21281;-64
2021/07/29 02:23:27;;;;;;;17.23;8.05;;;;;;;22.22;57.51;100567.89;1656080;84;21336;-64
2021/07/29 02:26:00;;;;;;;17.48;9.38;;;;;;;22.22;58.02;100570.05;1654482;85;21306;-64
2021/07/29 02:28:33;;;;;;;14.63;7.97;;;;;;;22.20;57.94;100564.11;1657431;85;21280;-64
2021/07/29 02:31:06;;;;;;;22.90;8.87;;;;;;;22.18;58.02;100553.34;1657219;85;21320;-64
2021/07/29 02:33:39;;;;;;;21.70;8.38;;;;;;;22.13;57.88;100548.63;1659051;84;21323;-64
2021/07/29 02:36:14;;;;;;;17.45;9.00;;;;;;;22.09;57.89;100542.06;1656423;85;21185;-64
2021/07/29 02:38:48;;;;;;;21.68;8.73;;;;;;;22.07;57.74;100548.08;1652346;85;21239;-64
2021/07/29 02:41:21;;;;;;;16.67;9.33;;;;;;;22.05;57.85;100551.47;1653034;85;21308;-64
2021/07/29 02:43:54;;;;;;;18.10;8.95;;;;;;;22.06;57.59;100546.45;1653242;85;21375;-64
2021/07/29 02:46:28;;;;;;;20.27;8.68;;;;;;;22.10;57.49;100551.17;1651661;85;21348;-64
2021/07/29 02:49:00;;;;;;;;;;;;;;;22.19;57.39;100550.45;1654310;85;21739;-64
2021/07/29 02:51:34;;;;;;;19.05;8.70;;;;;;;22.29;57.38;100540.72;1651757;85;20283;-64
2021/07/29 02:54:07;;;;;;;38.90;15.95;;;;;;;22.37;57.46;100540.52;1656187;85;21292;-64
2021/07/29 02:56:40;;;;;;;34.95;19.05;;;;;;;22.47;57.26;100542.27;1655403;85;21335;-63
2021/07/29 02:59:13;;;;;;;43.52;21.35;;;;;;;22.55;56.88;100548.71;1654272;85;21265;-64
2021/07/29 03:01:47;;;;;;;46.23;21.55;;;;;;;22.60;56.84;100545.74;1655116;85;21209;-64
2021/07/29 03:04:25;;;;;;;42.23;18.00;;;;;;;22.66;56.65;100550.80;1656288;85;21308;-64
2021/07/29 03:06:59;;;;;;;35.33;16.00;;;;;;;22.75;56.41;100558.39;1661512;85;21290;-64
2021/07/29 03:09:32;;;;;;;33.23;13.68;;;;;;;22.86;56.06;100548.91;1654044;85;21303;-64
2021/07/29 03:12:06;;;;;;;22.77;10.65;;;;;;;22.99;55.55;100547.56;1657709;84;21914;-64
2021/07/29 03:14:40;;;;;;;22.05;10.25;;;;;;;23.08;55.34;100542.80;1655702;85;21331;-64
2021/07/29 03:17:13;;;;;;;22.07;10.43;;;;;;;23.13;55.13;100542.99;1659508;85;21284;-64
2021/07/29 03:19:46;;;;;;;26.12;9.28;;;;;;;23.14;55.20;100545.44;1656790;85;21342;-64
2021/07/29 03:22:19;;;;;;;17.82;9.20;;;;;;;23.20;55.26;100541.95;1655812;85;21812;-65
2021/07/29 03:24:52;;;;;;;23.20;9.08;;;;;;;23.28;54.92;100541.72;1656573;85;21311;-64
2021/07/29 03:27:26;;;;;;;15.65;8.75;;;;;;;23.32;54.50;100542.92;1654357;84;21371;-65
2021/07/29 03:29:59;;;;;;;;;;;;;;;23.41;54.22;100543.02;1660102;85;21299;-64
2021/07/29 03:32:32;;;;;;;18.67;9.00;;;;;;;23.52;53.91;100536.70;1653819;85;20173;-66
2021/07/29 03:35:08;;;;;;;18.45;8.98;;;;;;;23.67;53.79;100536.72;1661577;84;21370;-65
2021/07/29 03:37:41;;;;;;;22.70;9.28;;;;;;;23.90;53.37;100536.19;1659858;84;21296;-64
2021/07/29 03:40:15;;;;;;;24.45;9.13;;;;;;;24.10;53.02;100534.20;1658609;85;21215;-65
2021/07/29 03:42:48;;;;;;;;;;;;;;;24.27;52.46;100540.66;1658070;85;21189;-64
2021/07/29 03:45:21;;;;;;;17.35;8.75;;;;;;;24.47;51.62;100538.66;1661586;85;20257;-66
2021/07/29 03:47:54;;;;;;;19.15;8.68;;;;;;;24.62;50.91;100539.11;1657109;85;21213;-65
2021/07/29 03:50:28;;;;;;;17.25;8.08;;;;;;;24.94;50.21;100540.38;1658630;85;21319;-67
2021/07/29 03:53:01;;;;;;;23.35;9.45;;;;;;;25.33;49.18;100539.94;1655158;85;21181;-67
2021/07/29 03:55:35;;;;;;;22.17;8.65;;;;;;;25.76;48.40;100529.08;1657015;85;21340;-66
2021/07/29 03:58:08;;;;;;;16.52;8.18;;;;;;;26.23;47.34;100530.03;1654833;85;21220;-68
2021/07/29 04:00:41;;;;;;;22.35;9.00;;;;;;;26.66;46.34;100537.23;1654475;85;21343;-66
2021/07/29 04:03:15;;;;;;;17.98;9.43;;;;;;;27.10;45.31;100533.96;1639813;86;21189;-66
2021/07/29 04:05:49;;;;;;;17.77;7.95;;;;;;;27.55;44.34;100527.36;1655532;85;21411;-66
2021/07/29 04:08:22;;;;;;;20.48;9.63;;;;;;;28.00;43.41;100530.08;1661370;84;21861;-65
2021/07/29 04:10:59;;;;;;;27.15;9.30;;;;;;;28.49;42.54;100525.77;1653624;85;21170;-65
2021/07/29 04:13:31;;;;;;;21.15;9.28;;;;;;;29.01;41.65;100530.30;1655594;85;21351;-65
2021/07/29 04:16:04;;;;;;;;;;;;;;;29.45;41.05;100520.36;1651133;85;21352;-65
2021/07/29 04:18:38;;;;;;;24.55;8.85;;;;;;;29.87;40.37;100518.13;1654578;85;20191;-65
2021/07/29 04:21:17;;;;;;;29.48;9.58;;;;;;;30.35;39.80;100521.78;1656437;85;21296;-64
2021/07/29 04:23:50;;;;;;;34.00;9.43;;;;;;;30.78;39.02;100514.77;1656625;85;21339;-65
2021/07/29 04:26:25;;;;;;;26.12;9.15;;;;;;;31.01;38.05;100515.72;1655952;85;21846;-65
2021/07/29 04:28:58;;;;;;;32.75;9.60;;;;;;;30.99;37.53;100511.65;1657892;85;21292;-64
2021/07/29 04:31:32;;;;;;;27.22;9.05;;;;;;;31.11;37.28;100512.24;1656125;84;21291;-65
2021/07/29 04:34:04;;;;;;;;;;;;;;;31.44;36.76;100506.43;1659894;85;21213;-65
2021/07/29 04:36:41;;;;;;;20.37;7.53;;;;;;;31.79;35.84;100508.37;1657364;85;20247;-66
2021/07/29 04:39:14;;;;;;;25.88;8.03;;;;;;;32.09;35.54;100505.73;1655143;85;21906;-65
2021/07/29 04:41:47;;;;;;;;;;;;;;;32.56;35.07;100503.53;1657269;85;21296;-65
2021/07/29 04:44:20;;;;;;;15.48;7.05;;;;;;;33.14;34.05;100505.27;1659146;84;20256;-66
2021/07/29 04:46:53;;;;;;;24.45;7.90;;;;;;;33.64;32.87;100502.29;1654486;85;21305;-65
2021/07/29 04:49:25;;;;;;;;;;;;;;;34.05;32.07;100497.94;1655289;85;21331;-65
2021/07/29 04:51:58;;;;;;;16.60;6.90;;;;;;;34.41;31.19;100504.67;1656501;85;20254;-67
2021/07/29 04:54:31;;;;;;;18.98;7.72;;;;;;;34.42;30.95;100504.91;1671936;84;21827;-71
2021/07/29 04:57:04;;;;;;;15.98;7.65;;;;;;;34.54;31.06;100499.92;1678877;83;21544;-66
2021/07/29 04:59:40;;;;;;;15.28;7.28;;;;;;;34.81;30.22;100504.25;1677891;83;21304;-67
2021/07/29 05:02:12;;;;;;;21.02;7.58;;;;;;;34.98;30.08;100495.08;1644214;85;22008;-68
2021/07/29 05:04:46;;;;;;;20.45;7.55;;;;;;;35.12;30.11;100495.19;1625227;85;21237;-68
2021/07/29 05:07:18;;;;;;;27.05;7.62;;;;;;;35.20;30.14;100491.25;1637995;85;21886;-72
2021/07/29 05:09:51;;;;;;;;;;;;;;;35.10;30.18;100498.77;1683017;83;21255;-69
2021/07/29 05:12:23;;;;;;;24.43;7.85;;;;;;;34.77;30.45;100499.14;1663850;83;20205;-68
2021/07/29 05:14:57;;;;;;;23.05;7.50;;;;;;;34.70;30.45;100501.41;1675323;83;22426;-68
2021/07/29 05:17:32;;;;;;;17.45;7.10;;;;;;;35.09;29.58;100506.66;1643594;84;21291;-69
2021/07/29 05:20:07;;;;;;;19.17;6.87;;;;;;;35.56;28.96;100509.86;1638141;85;21917;-70
2021/07/29 05:22:39;;;;;;;16.32;7.12;;;;;;;36.02;28.55;100508.05;1672296;83;21304;-70
2021/07/29 05:25:13;;;;;;;18.85;6.95;;;;;;;36.36;28.26;100499.01;1681715;83;21299;-72
2021/07/29 05:27:45;;;;;;;18.95;7.35;;;;;;;36.42;28.25;100501.09;1665948;83;21219;-71
2021/07/29 05:30:20;;;;;;;17.32;6.85;;;;;;;36.78;27.98;100501.25;1680399;83;21344;-73
2021/07/29 05:32:53;;;;;;;12.95;6.58;;;;;;;37.26;27.37;100499.69;1664157;82;21205;-72
2021/07/29 05:35:26;;;;;;;18.82;6.80;;;;;;;37.36;26.93;100508.21;1672376;83;21346;-73
2021/07/29 05:37:59;;;;;;;16.42;6.65;;;;;;;37.54;26.89;100506.75;1668093;83;21300;-71
2021/07/29 05:40:32;;;;;;;35.90;7.42;;;;;;;38.01;26.24;100505.91;1673747;83;21923;-73
2021/07/29 05:43:05;;;;;;;20.00;7.15;;;;;;;38.31;25.55;100496.38;1615679;85;21889;-72
2021/07/29 05:45:39;;;;;;;15.03;6.62;;;;;;;38.23;25.76;100497.68;1668935;82;21168;-75
2021/07/29 05:48:12;;;;;;;20.77;7.17;;;;;;;38.34;25.74;100494.95;1675496;82;21312;-73
2021/07/29 05:50:47;;;;;;;16.62;6.87;;;;;;;38.37;25.35;100491.04;1667345;84;21848;-70
2021/07/29 05:53:19;;;;;;;12.50;6.47;;;;;;;38.69;25.19;100493.18;1682957;83;21381;-71
2021/07/29 05:55:55;;;;;;;25.20;6.95;;;;;;;39.23;24.79;100491.34;1676974;83;21275;-69
2021/07/29 05:58:31;;;;;;;15.40;7.00;;;;;;;39.68;23.72;100491.86;1674773;83;21353;-71
2021/07/29 06:01:11;;;;;;;22.80;6.90;;;;;;;39.96;23.32;100480.77;1668646;83;21339;-72
2021/07/29 06:03:44;;;;;;;20.97;7.03;;;;;;;40.24;22.91;100483.97;1681203;82;21322;-70
2021/07/29 06:06:17;;;;;;;19.73;6.92;;;;;;;40.44;22.96;100473.66;1675647;83;21320;-69
2021/07/29 06:08:58;;;;;;;18.40;7.60;;;;;;;40.71;22.79;100479.27;1668019;82;21343;-73
2021/07/29 06:11:26;;;;;;;25.82;7.87;;;;;;;40.95;22.13;100473.98;1674367;84;21880;-71
2021/07/29 06:14:00;;;;;;;15.95;7.70;;;;;;;40.87;22.28;100472.09;1661492;83;21327;-72
2021/07/29 06:16:35;;;;;;;16.02;7.20;;;;;;;40.78;22.46;100471.31;1643134;83;21259;-78
2021/07/29 06:19:15;;;;;;;16.80;7.30;;;;;;;41.10;22.27;100463.80;1671496;83;21302;-74
2021/07/29 06:21:43;;;;;;;23.45;7.25;;;;;;;41.47;22.02;100471.11;1647252;84;21285;-74
2021/07/29 06:24:16;;;;;;;23.22;7.87;;;;;;;41.68;21.77;100473.05;1611689;86;21775;-74
2021/07/29 06:26:50;;;;;;;21.17;7.58;;;;;;;41.86;21.52;100478.06;1622355;86;21867;-76
2021/07/29 06:29:23;;;;;;;20.72;7.62;;;;;;;41.81;21.47;100472.77;1629882;86;21330;-72
2021/07/29 06:31:58;;;;;;;20.30;6.92;;;;;;;42.02;21.37;100472.14;1629954;87;21703;-73
2021/07/29 06:34:31;;;;;;;17.32;6.78;;;;;;;42.22;21.24;100469.92;1632059;86;22024;-73
2021/07/29 06:37:26;;;;;;;17.80;6.62;;;;;;;42.55;21.03;100464.34;1679023;84;21291;-72
2021/07/29 06:40:00;;;;;;;19.20;6.83;;;;;;;42.79;20.59;100464.34;1669343;84;22448;-74
2021/07/29 06:42:33;;;;;;;14.85;6.35;;;;;;;42.93;20.70;100461.81;1654811;85;21276;-71
2021/07/29 06:45:07;;;;;;;17.87;6.70;;;;;;;43.15;20.37;100459.94;1650954;84;21323;-72
2021/07/29 06:47:41;;;;;;;22.70;7.83;;;;;;;43.37;20.18;100464.39;1678621;84;21272;-73
2021/07/29 06:50:14;;;;;;;28.12;7.28;;;;;;;43.55;20.04;100459.36;1639671;86;21299;-74
2021/07/29 06:52:47;;;;;;;15.65;6.83;;;;;;;43.62;19.94;100455.41;1654400;85;21350;-73
2021/07/29 06:55:20;;;;;;;17.23;7.37;;;;;;;43.63;19.80;100452.90;1665463;84;21347;-73
2021/07/29 06:57:53;;;;;;;15.48;6.80;;;;;;;43.81;19.73;100449.25;1655206;85;21356;-74
2021/07/29 07:00:26;;;;;;;22.58;6.67;;;;;;;43.75;19.75;100452.06;1646068;85;21390;-71
2021/07/29 07:03:00;;;;;;;16.87;7.25;;;;;;;43.77;19.91;100447.80;1663700;83;21894;-73
2021/07/29 07:05:33;;;;;;;19.73;6.72;;;;;;;43.97;19.54;100437.08;1666078;84;21329;-74
2021/07/29 07:08:07;;;;;;;14.47;6.72;;;;;;;44.26;19.46;100435.09;1655348;83;21189;-73
2021/07/29 07:10:43;;;;;;;15.00;6.30;;;;;;;44.62;19.09;100436.17;1663502;84;21330;-74
2021/07/29 07:13:18;;;;;;;16.85;6.67;;;;;;;44.99;18.74;100435.27;1658782;84;21336;-75
2021/07/29 07:15:51;;;;;;;12.45;6.72;;;;;;;45.42;18.44;100428.91;1663308;84;21292;-75
2021/07/29 07:18:25;;;;;;;14.38;5.78;;;;;;;45.80;18.05;100432.21;1662489;84;21334;-75
2021/07/29 07:21:13;;;;;;;17.35;7.03;;;;;;;46.00;17.76;100437.14;1667146;82;21906;-75
2021/07/29 07:24:01;;;;;;;15.15;6.10;;;;;;;46.31;17.63;100428.57;1677049;83;21770;-75
2021/07/29 07:26:50;;;;;;;15.50;6.55;;;;;;;46.57;17.37;100423.64;1671471;83;21208;-75
2021/07/29 07:29:23;;;;;;;14.83;6.22;;;;;;;46.83;17.08;100422.27;1669154;83;21937;-74
2021/07/29 07:32:01;;;;;;;20.25;6.62;;;;;;;46.92;17.03;100419.20;1668406;84;21370;-73
2021/07/29 07:34:36;;;;;;;17.02;6.20;;;;;;;47.21;16.46;100422.58;1666859;83;21212;-74
2021/07/29 07:37:20;;;;;;;15.08;5.95;;;;;;;47.48;16.37;100414.98;1675553;83;22175;-72
2021/07/29 07:40:00;;;;;;;18.07;6.10;;;;;;;47.61;16.28;100414.33;1663870;83;22596;-75
2021/07/29 07:42:33;;;;;;;13.55;5.08;;;;;;;47.82;15.98;100410.39;1665380;83;22138;-74
2021/07/29 07:45:06;;;;;;;16.85;6.65;;;;;;;47.74;15.87;100409.30;1670017;83;21326;-75
2021/07/29 07:47:43;;;;;;;14.95;6.15;;;;;;;47.82;15.91;100401.27;1665505;83;21798;-72
2021/07/29 07:50:17;;;;;;;11.80;5.62;;;;;;;47.87;15.81;100408.66;1662581;84;21323;-74
2021/07/29 07:52:50;;;;;;;8.25;5.15;;;;;;;47.76;15.96;100409.13;1658895;84;21385;-73
2021/07/29 07:55:24;;;;;;;16.23;5.55;;;;;;;47.72;15.68;100406.13;1663202;84;21291;-72
2021/07/29 07:58:10;;;;;;;12.85;5.50;;;;;;;47.77;15.78;100401.61;1663870;83;21361;-73
2021/07/29 08:00:53;;;;;;;43.20;6.78;;;;;;;47.81;15.01;100397.72;1654102;84;21599;-75
2021/07/29 08:03:27;;;;;;;22.67;4.87;;;;;;;47.33;15.10;100395.39;1670043;83;21302;-73
2021/07/29 08:06:07;;;;;;;11.05;3.62;;;;;;;46.79;15.54;100385.41;1623829;86;21403;-73
2021/07/29 08:08:42;;;;;;;22.22;5.03;;;;;;;46.63;15.43;100382.77;1675958;83;21786;-72
2021/07/29 08:11:31;;;;;;;8.83;4.17;;;;;;;46.36;15.51;100380.41;1677419;83;21279;-74
2021/07/29 08:14:04;;;;;;;12.15;4.20;;;;;;;45.96;15.82;100387.80;1654084;84;21961;-72
2021/07/29 08:16:59;;;;;;;9.63;4.20;;;;;;;45.75;15.99;100382.72;1659674;84;21331;-74
2021/07/29 08:20:02;;;;;;;14.85;5.35;;;;;;;45.75;16.10;100381.91;1674380;83;21222;-75
2021/07/29 08:22:38;;;;;;;11.08;4.62;;;;;;;45.75;15.58;100377.19;1681426;83;21311;-76
2021/07/29 08:25:16;;;;;;;18.42;4.15;;;;;;;45.78;15.36;100376.45;1676888;83;21256;-72
2021/07/29 08:27:51;;;;;;;8.68;3.87;;;;;;;45.89;15.02;100376.62;1686071;82;21830;-73
2021/07/29 08:30:27;;;;;;;10.45;3.72;;;;;;;45.78;14.79;100366.77;1675118;83;21322;-71
2021/07/29 08:33:12;;;;;;;22.77;3.72;;;;;;;45.79;14.33;100371.73;1671331;83;21208;-72
2021/07/29 08:35:50;;;;;;;22.67;4.58;;;;;;;45.61;13.91;100374.75;1623495;85;21376;-72
2021/07/29 08:38:38;;;;;;;11.85;3.95;;;;;;;45.29;13.99;100365.24;1667590;83;21314;-71
2021/07/29 08:41:24;;;;;;;14.10;4.25;;;;;;;45.05;14.01;100370.27;1664523;83;21219;-72
2021/07/29 08:43:57;;;;;;;23.30;5.00;;;;;;;44.98;14.07;100363.19;1676082;83;21402;-73
2021/07/29 08:46:34;;;;;;;10.23;3.60;;;;;;;44.97;13.88;100363.80;1677702;83;21355;-74
2021/07/29 08:49:08;;;;;;;14.05;3.85;;;;;;;44.89;13.98;100354.33;1651220;84;21355;-75
2021/07/29 08:51:42;;;;;;;11.30;3.98;;;;;;;44.86;14.01;100356.45;1656695;84;21850;-74
2021/07/29 08:54:18;;;;;;;14.87;3.80;;;;;;;44.94;13.97;100358.19;1673815;83;21262;-74
2021/07/29 08:56:57;;;;;;;18.02;4.30;;;;;;;45.02;13.89;100346.13;1653017;84;22321;-76
2021/07/29 08:59:30;;;;;;;6.67;3.62;;;;;;;44.93;13.99;100349.09;1670901;83;21346;-74
2021/07/29 09:02:04;;;;;;;13.25;4.28;;;;;;;44.89;14.28;100357.89;1668808;84;21447;-74
2021/07/29 09:04:39;;;;;;;16.82;4.17;;;;;;;44.68;14.57;100349.94;1671108;83;22308;-75
2021/07/29 09:07:14;;;;;;;13.93;4.45;;;;;;;44.52;14.60;100344.25;1666319;84;21319;-78
2021/07/29 09:09:52;;;;;;;13.58;3.95;;;;;;;44.38;14.79;100347.44;1658808;84;21763;-74
2021/07/29 09:12:26;;;;;;;16.27;4.75;;;;;;;44.29;14.85;100341.89;1647143;84;21190;-73
2021/07/29 09:15:01;;;;;;;7.75;3.87;;;;;;;44.04;15.07;100342.67;1653654;84;22176;-73
2021/07/29 09:17:37;;;;;;;12.10;3.90;;;;;;;43.89;15.13;100344.86;1619563;85;21519;-73
2021/07/29 09:20:19;;;;;;;23.50;4.12;;;;;;;43.63;15.25;100339.04;1642768;84;21307;-74
2021/07/29 09:22:53;;;;;;;13.13;4.10;;;;;;;43.23;15.90;100341.89;1654033;84;21364;-74
2021/07/29 09:25:26;;;;;;;14.53;3.90;;;;;;;43.03;15.98;100331.86;1664650;84;21347;-72
2021/07/29 09:28:03;;;;;;;11.48;4.08;;;;;;;42.80;16.17;100330.98;1661675;84;21311;-72
2021/07/29 09:30:33;;;;;;;13.08;4.08;;;;;;;42.59;16.18;100336.44;1658672;85;21277;-73
2021/07/29 09:33:12;;;;;;;11.97;4.25;;;;;;;42.34;16.64;100327.98;1672345;83;21255;-73
2021/07/29 09:35:51;;;;;;;9.48;4.97;;;;;;;42.25;16.87;100323.98;1626926;85;21377;-71
2021/07/29 09:38:31;;;;;;;12.47;4.30;;;;;;;42.12;17.12;100320.44;1663907;83;21314;-69
2021/07/29 09:41:10;;;;;;;12.35;4.25;;;;;;;41.95;17.23;100314.32;1664032;83;21186;-71
2021/07/29 09:43:43;;;;;;;13.55;4.45;;;;;;;41.69;17.15;100311.91;1646991;83;21330;-72
2021/07/29 09:46:20;;;;;;;11.28;4.30;;;;;;;41.44;17.58;100316.52;1683953;83;21951;-75
2021/07/29 09:48:53;;;;;;;8.10;3.83;;;;;;;41.13;17.78;100311.26;1671537;84;21363;-72
2021/07/29 09:51:26;;;;;;;9.10;4.33;;;;;;;40.79;18.45;100306.28;1670233;84;21299;-71
2021/07/29 09:53:59;;;;;;;13.65;3.83;;;;;;;40.58;18.80;100304.67;1619937;87;21805;-72
2021/07/29 09:56:32;;;;;;;8.33;3.83;;;;;;;40.40;18.60;100300.40;1682570;83;21829;-72
2021/07/29 09:59:07;;;;;;;13.70;4.12;;;;;;;40.12;18.76;100298.73;1673635;83;21556;-71
2021/07/29 10:01:40;;;;;;;30.12;4.70;;;;;;;39.80;19.24;100285.06;1668467;84;21338;-72
2021/07/29 10:04:14;;;;;;;13.40;4.25;;;;;;;39.54;19.41;100291.17;1673846;84;21378;-71
2021/07/29 10:06:48;;;;;;;19.52;4.40;;;;;;;39.17;19.98;100292.70;1671327;84;21831;-71
2021/07/29 10:09:22;;;;;;;10.15;3.30;;;;;;;38.91;20.26;100288.60;1619633;86;21218;-69
2021/07/29 10:11:58;;;;;;;11.60;4.67;;;;;;;38.75;20.76;100294.89;1685069;83;21885;-71
2021/07/29 10:14:50;;;;;;;13.00;4.67;;;;;;;38.65;20.98;100295.98;1623327;85;21348;-70
2021/07/29 10:17:39;;;;;;;18.48;4.50;;;;;;;38.58;21.08;100300.31;1654774;84;21402;-71
2021/07/29 10:20:23;;;;;;;14.18;4.45;;;;;;;38.40;21.85;100302.24;1664755;83;21349;-72
2021/07/29 10:23:22;;;;;;;12.33;4.28;;;;;;;38.12;22.64;100294.03;1665539;83;21875;-75
2021/07/29 10:26:06;;;;;;;24.30;5.50;;;;;;;37.91;23.01;100295.15;1661863;83;21890;-75
2021/07/29 10:28:39;;;;;;;11.57;4.55;;;;;;;37.71;23.50;100297.06;1672477;83;21343;-73
2021/07/29 10:31:14;;;;;;;9.05;4.10;;;;;;;37.58;23.84;100289.20;1681157;83;21282;-75
2021/07/29 10:33:48;;;;;;;12.65;4.62;;;;;;;37.36;24.07;100290.56;1681278;83;21916;-76
2021/07/29 10:36:44;;;;;;;18.55;4.50;;;;;;;37.18;24.21;100284.76;1674950;83;21926;-76
2021/07/29 10:39:17;;;;;;;16.00;4.83;;;;;;;37.01;24.48;100292.83;1660177;83;21435;-72
2021/07/29 10:41:51;;;;;;;;;;;;;;;36.72;24.91;100283.66;1669208;84;21228;-77
2021/07/29 10:44:38;;;;;;;11.83;5.12;;;;;;;36.61;25.37;100291.83;1672023;83;20355;-75
2021/07/29 10:47:28;;;;;;;9.93;4.90;;;;;;;36.51;25.31;100287.14;1666483;83;21482;-74
2021/07/29 10:50:33;;;;;;;17.55;4.62;;;;;;;36.36;25.61;100282.25;1660751;84;22262;-74
2021/07/29 10:53:12;;;;;;;10.85;4.30;;;;;;;36.26;25.83;100285.19;1659509;84;21363;-73
2021/07/29 10:55:45;;;;;;;10.88;4.45;;;;;;;36.21;26.00;100275.75;1653980;84;21322;-74
2021/07/29 10:58:17;;;;;;;;;;;;;;;36.23;26.12;100276.25;1640300;85;21246;-70
2021/07/29 11:00:53;;;;;;;12.68;5.10;;;;;;;36.26;26.34;100273.47;1599271;87;20220;-72
2021/07/29 11:03:27;;;;;;;15.00;4.97;;;;;;;36.32;26.47;100273.08;1618485;85;21329;-74
2021/07/29 11:06:06;;;;;;;12.93;5.20;;;;;;;36.32;26.00;100267.63;1614320;86;21299;-76
2021/07/29 11:08:38;;;;;;;10.60;4.42;;;;;;;36.11;26.27;100272.44;1671927;83;21353;-74
2021/07/29 11:11:12;;;;;;;13.68;4.85;;;;;;;35.91;26.80;100268.17;1674404;84;21374;-73
2021/07/29 11:13:47;;;;;;;13.70;5.35;;;;;;;35.87;26.90;100263.64;1676572;83;21240;-70
2021/07/29 11:16:20;;;;;;;13.32;4.75;;;;;;;35.95;27.21;100260.19;1674789;83;21219;-72
2021/07/29 11:19:02;;;;;;;17.02;4.90;;;;;;;36.05;27.16;100261.37;1674002;83;21195;-72
2021/07/29 11:21:36;;;;;;;11.73;4.85;;;;;;;36.19;26.98;100253.99;1677727;83;21327;-74
2021/07/29 11:24:29;;;;;;;19.77;5.12;;;;;;;36.38;26.70;100249.21;1600079;86;21238;-70
2021/07/29 11:27:13;;;;;;;13.20;5.15;;;;;;;36.49;26.08;100250.65;1607018;87;21222;-76
2021/07/29 11:30:01;;;;;;;11.30;4.65;;;;;;;36.48;26.40;100249.02;1628105;84;21317;-73
2021/07/29 11:32:44;;;;;;;10.25;4.90;;;;;;;36.51;26.42;100245.69;1616887;86;21329;-75
2021/07/29 11:35:22;;;;;;;12.82;4.50;;;;;;;36.55;26.58;100244.50;1616919;86;21241;-72
2021/07/29 11:37:53;;;;;;;14.18;5.00;;;;;;;36.55;26.48;100243.14;1609663;86;21219;-73
2021/07/29 11:40:26;;;;;;;;;;;;;;;36.55;26.37;100241.77;1619497;85;21925;-73
2021/07/29 11:43:00;;;;;;;12.03;4.78;;;;;;;36.48;26.06;100242.20;1628695;85;20655;-72
2021/07/29 11:45:33;;;;;;;8.30;4.45;;;;;;;36.45;26.49;100231.36;1607564;86;21349;-72
2021/07/29 11:48:07;;;;;;;16.80;5.12;;;;;;;36.44;26.04;100224.27;1609805;87;22567;-71
2021/07/29 11:50:56;;;;;;;11.33;4.53;;;;;;;36.38;26.06;100228.22;1669983;84;21343;-72
2021/07/29 11:53:52;;;;;;;10.72;4.60;;;;;;;36.28;25.90;100222.20;1672635;83;21352;-71
2021/07/29 11:56:28;;;;;;;18.50;5.50;;;;;;;36.16;26.17;100211.80;1642910;85;21198;-73
2021/07/29 11:59:08;;;;;;;13.60;4.53;;;;;;;36.08;26.42;100209.00;1619244;85;21362;-74
2021/07/29 12:01:54;;;;;;;17.55;5.10;;;;;;;35.99;26.83;100218.46;1592555;86;21233;-72